sensor_id;sensor_type;location;lat;lon;timestamp;temperature;humidity
326;DHT22;150;52.352;14.058;2022-11-22T00:00:06;0.20;42.40
326;DHT22;150;52.352;14.058;2022-11-22T00:02:33;0.20;42.40
326;DHT22;150;52.352;14.058;2022-11-22T00:05:02;0.10;42.70
326;DHT22;150;52.352;14.058;2022-11-22T00:07:29;0.10;43.70
326;DHT22;150;52.352;14.058;2022-11-22T00:09:55;0.10;43.40
326;DHT22;150;52.352;14.058;2022-11-22T00:12:22;0.00;43.70
326;DHT22;150;52.352;14.058;2022-11-22T00:14:48;0.10;43.90
326;DHT22;150;52.352;14.058;2022-11-22T00:17:15;0.10;44.10
326;DHT22;150;52.352;14.058;2022-11-22T00:19:42;0.10;44.40
326;DHT22;150;52.352;14.058;2022-11-22T00:22:10;0.10;44.50
326;DHT22;150;52.352;14.058;2022-11-22T00:24:36;0.00;44.90
326;DHT22;150;52.352;14.058;2022-11-22T00:27:03;0.00;45.40
326;DHT22;150;52.352;14.058;2022-11-22T00:29:30;-0.10;45.40
326;DHT22;150;52.352;14.058;2022-11-22T00:31:56;-0.10;46.00
326;DHT22;150;52.352;14.058;2022-11-22T00:34:23;-0.10;46.00
326;DHT22;150;52.352;14.058;2022-11-22T00:36:49;0.00;46.00
326;DHT22;150;52.352;14.058;2022-11-22T00:39:17;0.00;46.00
326;DHT22;150;52.352;14.058;2022-11-22T00:41:44;0.10;46.10
326;DHT22;150;52.352;14.058;2022-11-22T00:44:11;0.10;45.50
326;DHT22;150;52.352;14.058;2022-11-22T00:46:37;0.10;45.40
326;DHT22;150;52.352;14.058;2022-11-22T00:49:04;0.10;45.20
326;DHT22;150;52.352;14.058;2022-11-22T00:51:30;0.10;45.50
326;DHT22;150;52.352;14.058;2022-11-22T00:53:57;0.00;46.00
326;DHT22;150;52.352;14.058;2022-11-22T00:56:25;0.10;46.10
326;DHT22;150;52.352;14.058;2022-11-22T00:58:52;0.20;45.90
326;DHT22;150;52.352;14.058;2022-11-22T01:01:18;0.10;45.30
326;DHT22;150;52.352;14.058;2022-11-22T01:03:45;0.10;45.40
326;DHT22;150;52.352;14.058;2022-11-22T01:06:15;0.20;45.50
326;DHT22;150;52.352;14.058;2022-11-22T01:08:42;0.10;46.10
326;DHT22;150;52.352;14.058;2022-11-22T01:11:09;0.10;46.10
326;DHT22;150;52.352;14.058;2022-11-22T01:13:37;0.10;45.90
326;DHT22;150;52.352;14.058;2022-11-22T01:16:06;0.00;45.80
326;DHT22;150;52.352;14.058;2022-11-22T01:18:33;0.00;46.00
326;DHT22;150;52.352;14.058;2022-11-22T01:21:00;0.20;46.20
326;DHT22;150;52.352;14.058;2022-11-22T01:23:27;0.10;46.10
326;DHT22;150;52.352;14.058;2022-11-22T01:25:53;0.20;46.20
326;DHT22;150;52.352;14.058;2022-11-22T01:28:20;0.20;46.00
326;DHT22;150;52.352;14.058;2022-11-22T01:30:50;0.20;45.80
326;DHT22;150;52.352;14.058;2022-11-22T01:33:17;0.00;45.90
326;DHT22;150;52.352;14.058;2022-11-22T01:35:45;0.00;46.00
326;DHT22;150;52.352;14.058;2022-11-22T01:38:11;0.10;46.70
326;DHT22;150;52.352;14.058;2022-11-22T01:40:38;0.00;46.70
326;DHT22;150;52.352;14.058;2022-11-22T01:43:13;-0.10;46.90
326;DHT22;150;52.352;14.058;2022-11-22T01:45:44;0.00;47.30
326;DHT22;150;52.352;14.058;2022-11-22T01:48:23;0.10;47.60
326;DHT22;150;52.352;14.058;2022-11-22T01:50:56;0.00;46.70
326;DHT22;150;52.352;14.058;2022-11-22T01:53:27;0.00;46.40
326;DHT22;150;52.352;14.058;2022-11-22T01:55:56;0.10;46.60
326;DHT22;150;52.352;14.058;2022-11-22T01:58:26;0.10;46.10
326;DHT22;150;52.352;14.058;2022-11-22T02:00:55;0.10;46.20
326;DHT22;150;52.352;14.058;2022-11-22T02:03:23;0.00;46.40
326;DHT22;150;52.352;14.058;2022-11-22T02:05:50;0.00;46.60
326;DHT22;150;52.352;14.058;2022-11-22T02:08:21;0.00;47.00
326;DHT22;150;52.352;14.058;2022-11-22T02:10:52;0.00;46.70
326;DHT22;150;52.352;14.058;2022-11-22T02:13:21;-0.20;47.20
326;DHT22;150;52.352;14.058;2022-11-22T02:15:48;-0.10;47.40
326;DHT22;150;52.352;14.058;2022-11-22T02:18:16;-0.20;47.40
326;DHT22;150;52.352;14.058;2022-11-22T02:20:44;-0.10;47.50
326;DHT22;150;52.352;14.058;2022-11-22T02:23:18;-0.10;47.30
326;DHT22;150;52.352;14.058;2022-11-22T02:25:54;-0.20;47.60
326;DHT22;150;52.352;14.058;2022-11-22T02:28:22;-0.10;47.50
326;DHT22;150;52.352;14.058;2022-11-22T02:30:50;-0.30;47.90
326;DHT22;150;52.352;14.058;2022-11-22T02:33:17;-0.20;48.30
326;DHT22;150;52.352;14.058;2022-11-22T02:35:43;-0.20;48.20
326;DHT22;150;52.352;14.058;2022-11-22T02:38:12;-0.20;48.50
326;DHT22;150;52.352;14.058;2022-11-22T02:40:42;-0.20;48.30
326;DHT22;150;52.352;14.058;2022-11-22T02:43:16;-0.20;49.30
326;DHT22;150;52.352;14.058;2022-11-22T02:45:43;-0.30;48.60
326;DHT22;150;52.352;14.058;2022-11-22T02:48:12;-0.40;49.10
326;DHT22;150;52.352;14.058;2022-11-22T02:50:39;-0.30;49.90
326;DHT22;150;52.352;14.058;2022-11-22T02:53:07;-0.30;49.60
326;DHT22;150;52.352;14.058;2022-11-22T02:55:33;-0.30;49.80
326;DHT22;150;52.352;14.058;2022-11-22T02:58:00;-0.30;50.10
326;DHT22;150;52.352;14.058;2022-11-22T03:00:28;-0.30;50.30
326;DHT22;150;52.352;14.058;2022-11-22T03:02:55;-0.40;50.70
326;DHT22;150;52.352;14.058;2022-11-22T03:05:22;-0.40;51.20
326;DHT22;150;52.352;14.058;2022-11-22T03:07:49;-0.40;51.70
326;DHT22;150;52.352;14.058;2022-11-22T03:10:16;-0.40;51.60
326;DHT22;150;52.352;14.058;2022-11-22T03:12:42;-0.30;51.70
326;DHT22;150;52.352;14.058;2022-11-22T03:15:09;-0.30;51.30
326;DHT22;150;52.352;14.058;2022-11-22T03:17:37;-0.30;51.70
326;DHT22;150;52.352;14.058;2022-11-22T03:20:05;-0.20;51.40
326;DHT22;150;52.352;14.058;2022-11-22T03:22:32;-0.20;50.90
326;DHT22;150;52.352;14.058;2022-11-22T03:24:58;-0.30;51.30
326;DHT22;150;52.352;14.058;2022-11-22T03:27:25;-0.20;51.90
326;DHT22;150;52.352;14.058;2022-11-22T03:29:52;-0.10;51.60
326;DHT22;150;52.352;14.058;2022-11-22T03:32:18;0.00;51.00
326;DHT22;150;52.352;14.058;2022-11-22T03:34:46;0.00;51.00
326;DHT22;150;52.352;14.058;2022-11-22T03:37:13;0.00;50.80
326;DHT22;150;52.352;14.058;2022-11-22T03:39:39;-0.20;50.90
326;DHT22;150;52.352;14.058;2022-11-22T03:42:06;-0.10;51.60
326;DHT22;150;52.352;14.058;2022-11-22T03:44:33;0.00;51.60
326;DHT22;150;52.352;14.058;2022-11-22T03:46:59;0.00;51.40
326;DHT22;150;52.352;14.058;2022-11-22T03:49:26;0.00;51.00
326;DHT22;150;52.352;14.058;2022-11-22T03:51:54;-0.10;51.60
326;DHT22;150;52.352;14.058;2022-11-22T03:54:20;-0.20;52.40
326;DHT22;150;52.352;14.058;2022-11-22T03:56:47;-0.20;53.20
326;DHT22;150;52.352;14.058;2022-11-22T03:59:14;-0.30;53.30
326;DHT22;150;52.352;14.058;2022-11-22T04:01:40;-0.40;53.70
326;DHT22;150;52.352;14.058;2022-11-22T04:04:07;-0.30;54.30
326;DHT22;150;52.352;14.058;2022-11-22T04:06:33;-0.30;54.60
326;DHT22;150;52.352;14.058;2022-11-22T04:09:01;-0.30;54.80
326;DHT22;150;52.352;14.058;2022-11-22T04:11:28;-0.30;55.30
326;DHT22;150;52.352;14.058;2022-11-22T04:13:55;-0.20;55.10
326;DHT22;150;52.352;14.058;2022-11-22T04:16:40;-0.20;54.70
326;DHT22;150;52.352;14.058;2022-11-22T04:19:06;0.00;54.40
326;DHT22;150;52.352;14.058;2022-11-22T04:21:33;0.00;54.20
326;DHT22;150;52.352;14.058;2022-11-22T04:23:59;0.20;55.00
326;DHT22;150;52.352;14.058;2022-11-22T04:26:44;0.30;53.50
326;DHT22;150;52.352;14.058;2022-11-22T04:29:11;0.30;52.30
326;DHT22;150;52.352;14.058;2022-11-22T04:31:38;0.20;51.80
326;DHT22;150;52.352;14.058;2022-11-22T04:34:22;0.30;52.50
326;DHT22;150;52.352;14.058;2022-11-22T04:36:49;0.20;52.40
326;DHT22;150;52.352;14.058;2022-11-22T04:39:15;0.10;52.50
326;DHT22;150;52.352;14.058;2022-11-22T04:41:43;0.20;53.20
326;DHT22;150;52.352;14.058;2022-11-22T04:44:10;0.10;53.40
326;DHT22;150;52.352;14.058;2022-11-22T04:46:54;0.20;53.40
326;DHT22;150;52.352;14.058;2022-11-22T04:49:21;0.20;52.90
326;DHT22;150;52.352;14.058;2022-11-22T04:51:48;0.20;53.10
326;DHT22;150;52.352;14.058;2022-11-22T04:54:32;0.20;53.20
326;DHT22;150;52.352;14.058;2022-11-22T04:57:00;0.20;53.50
326;DHT22;150;52.352;14.058;2022-11-22T04:59:27;0.20;53.80
326;DHT22;150;52.352;14.058;2022-11-22T05:01:54;0.30;53.80
326;DHT22;150;52.352;14.058;2022-11-22T05:04:20;0.40;53.20
326;DHT22;150;52.352;14.058;2022-11-22T05:06:47;0.40;52.80
326;DHT22;150;52.352;14.058;2022-11-22T05:09:14;0.50;52.40
326;DHT22;150;52.352;14.058;2022-11-22T05:11:41;0.40;52.70
326;DHT22;150;52.352;14.058;2022-11-22T05:14:09;0.40;52.70
326;DHT22;150;52.352;14.058;2022-11-22T05:16:36;0.50;53.00
326;DHT22;150;52.352;14.058;2022-11-22T05:19:03;0.50;53.20
326;DHT22;150;52.352;14.058;2022-11-22T05:21:29;0.50;52.50
326;DHT22;150;52.352;14.058;2022-11-22T05:23:57;0.50;52.50
326;DHT22;150;52.352;14.058;2022-11-22T05:26:25;0.40;52.70
326;DHT22;150;52.352;14.058;2022-11-22T05:28:52;0.40;52.90
326;DHT22;150;52.352;14.058;2022-11-22T05:31:23;0.50;53.10
326;DHT22;150;52.352;14.058;2022-11-22T05:33:52;0.60;52.70
326;DHT22;150;52.352;14.058;2022-11-22T05:36:20;0.60;52.10
326;DHT22;150;52.352;14.058;2022-11-22T05:38:47;0.60;52.20
326;DHT22;150;52.352;14.058;2022-11-22T05:41:15;0.60;52.10
326;DHT22;150;52.352;14.058;2022-11-22T05:43:42;0.40;52.50
326;DHT22;150;52.352;14.058;2022-11-22T05:46:10;0.30;53.60
326;DHT22;150;52.352;14.058;2022-11-22T05:48:40;0.40;53.70
326;DHT22;150;52.352;14.058;2022-11-22T05:51:08;0.50;53.70
326;DHT22;150;52.352;14.058;2022-11-22T05:53:36;0.50;53.30
326;DHT22;150;52.352;14.058;2022-11-22T05:56:04;0.60;53.40
326;DHT22;150;52.352;14.058;2022-11-22T05:58:30;0.70;53.00
326;DHT22;150;52.352;14.058;2022-11-22T06:01:02;0.80;52.60
326;DHT22;150;52.352;14.058;2022-11-22T06:03:29;0.50;52.60
326;DHT22;150;52.352;14.058;2022-11-22T06:05:57;0.50;53.00
326;DHT22;150;52.352;14.058;2022-11-22T06:08:23;0.50;53.00
326;DHT22;150;52.352;14.058;2022-11-22T06:10:50;0.60;53.40
326;DHT22;150;52.352;14.058;2022-11-22T06:13:17;0.50;53.40
326;DHT22;150;52.352;14.058;2022-11-22T06:15:43;0.50;53.70
326;DHT22;150;52.352;14.058;2022-11-22T06:18:10;0.50;54.00
326;DHT22;150;52.352;14.058;2022-11-22T06:20:37;0.50;53.90
326;DHT22;150;52.352;14.058;2022-11-22T06:23:04;0.50;54.10
326;DHT22;150;52.352;14.058;2022-11-22T06:25:31;0.40;53.90
326;DHT22;150;52.352;14.058;2022-11-22T06:27:58;0.40;54.40
326;DHT22;150;52.352;14.058;2022-11-22T06:30:25;0.50;54.60
326;DHT22;150;52.352;14.058;2022-11-22T06:32:51;0.60;54.20
326;DHT22;150;52.352;14.058;2022-11-22T06:35:18;0.60;53.90
326;DHT22;150;52.352;14.058;2022-11-22T06:37:44;0.60;54.00
326;DHT22;150;52.352;14.058;2022-11-22T06:40:13;0.50;54.00
326;DHT22;150;52.352;14.058;2022-11-22T06:42:41;0.60;54.10
326;DHT22;150;52.352;14.058;2022-11-22T06:45:08;0.60;54.50
326;DHT22;150;52.352;14.058;2022-11-22T06:47:35;0.70;54.40
326;DHT22;150;52.352;14.058;2022-11-22T06:50:01;0.80;53.80
326;DHT22;150;52.352;14.058;2022-11-22T06:52:28;0.70;53.70
326;DHT22;150;52.352;14.058;2022-11-22T06:54:55;0.80;53.60
326;DHT22;150;52.352;14.058;2022-11-22T06:57:22;0.80;53.50
326;DHT22;150;52.352;14.058;2022-11-22T06:59:49;0.80;53.70
326;DHT22;150;52.352;14.058;2022-11-22T07:02:16;0.70;53.80
326;DHT22;150;52.352;14.058;2022-11-22T07:04:43;0.80;53.80
326;DHT22;150;52.352;14.058;2022-11-22T07:07:09;0.70;54.00
326;DHT22;150;52.352;14.058;2022-11-22T07:09:36;0.60;54.60
326;DHT22;150;52.352;14.058;2022-11-22T07:12:03;0.70;54.80
326;DHT22;150;52.352;14.058;2022-11-22T07:14:31;0.70;54.70
326;DHT22;150;52.352;14.058;2022-11-22T07:16:57;0.70;54.80
326;DHT22;150;52.352;14.058;2022-11-22T07:19:24;0.80;54.80
326;DHT22;150;52.352;14.058;2022-11-22T07:21:51;0.80;54.20
326;DHT22;150;52.352;14.058;2022-11-22T07:24:17;0.80;54.80
326;DHT22;150;52.352;14.058;2022-11-22T07:26:44;0.80;54.90
326;DHT22;150;52.352;14.058;2022-11-22T07:29:11;0.80;54.90
326;DHT22;150;52.352;14.058;2022-11-22T07:31:39;0.70;55.30
326;DHT22;150;52.352;14.058;2022-11-22T07:34:05;0.70;55.70
326;DHT22;150;52.352;14.058;2022-11-22T07:36:32;0.70;56.00
326;DHT22;150;52.352;14.058;2022-11-22T07:38:59;0.80;56.00
326;DHT22;150;52.352;14.058;2022-11-22T07:41:25;0.90;56.20
326;DHT22;150;52.352;14.058;2022-11-22T07:43:52;0.90;55.80
326;DHT22;150;52.352;14.058;2022-11-22T07:46:21;0.90;55.80
326;DHT22;150;52.352;14.058;2022-11-22T07:48:50;0.90;56.30
326;DHT22;150;52.352;14.058;2022-11-22T07:51:17;0.90;56.00
326;DHT22;150;52.352;14.058;2022-11-22T07:53:44;0.90;56.20
326;DHT22;150;52.352;14.058;2022-11-22T07:56:11;0.90;56.00
326;DHT22;150;52.352;14.058;2022-11-22T07:58:37;1.00;56.40
326;DHT22;150;52.352;14.058;2022-11-22T08:01:05;1.10;55.80
326;DHT22;150;52.352;14.058;2022-11-22T08:03:33;1.10;55.30
326;DHT22;150;52.352;14.058;2022-11-22T08:06:01;1.00;55.70
326;DHT22;150;52.352;14.058;2022-11-22T08:08:29;1.00;56.10
326;DHT22;150;52.352;14.058;2022-11-22T08:10:55;0.90;56.70
326;DHT22;150;52.352;14.058;2022-11-22T08:13:22;0.90;56.70
326;DHT22;150;52.352;14.058;2022-11-22T08:15:49;1.00;56.80
326;DHT22;150;52.352;14.058;2022-11-22T08:18:16;1.00;56.80
326;DHT22;150;52.352;14.058;2022-11-22T08:20:42;1.10;56.80
326;DHT22;150;52.352;14.058;2022-11-22T08:23:11;1.10;56.80
326;DHT22;150;52.352;14.058;2022-11-22T08:25:37;1.10;56.80
326;DHT22;150;52.352;14.058;2022-11-22T08:28:04;1.30;57.00
326;DHT22;150;52.352;14.058;2022-11-22T08:30:31;1.40;56.50
326;DHT22;150;52.352;14.058;2022-11-22T08:32:57;1.30;56.50
326;DHT22;150;52.352;14.058;2022-11-22T08:35:24;1.40;56.40
326;DHT22;150;52.352;14.058;2022-11-22T08:37:54;1.50;56.20
326;DHT22;150;52.352;14.058;2022-11-22T08:40:23;1.60;55.80
326;DHT22;150;52.352;14.058;2022-11-22T08:42:52;1.70;54.80
326;DHT22;150;52.352;14.058;2022-11-22T08:45:19;1.70;54.30
326;DHT22;150;52.352;14.058;2022-11-22T08:47:45;1.80;54.00
326;DHT22;150;52.352;14.058;2022-11-22T08:50:13;1.70;53.70
326;DHT22;150;52.352;14.058;2022-11-22T08:52:40;1.80;54.10
326;DHT22;150;52.352;14.058;2022-11-22T08:55:07;1.90;54.40
326;DHT22;150;52.352;14.058;2022-11-22T08:57:35;2.10;53.70
326;DHT22;150;52.352;14.058;2022-11-22T09:00:03;2.10;52.60
326;DHT22;150;52.352;14.058;2022-11-22T09:02:30;2.10;52.70
326;DHT22;150;52.352;14.058;2022-11-22T09:04:57;2.20;52.70
326;DHT22;150;52.352;14.058;2022-11-22T09:07:23;2.10;52.30
326;DHT22;150;52.352;14.058;2022-11-22T09:09:50;2.20;52.80
326;DHT22;150;52.352;14.058;2022-11-22T09:12:17;2.10;52.70
326;DHT22;150;52.352;14.058;2022-11-22T09:14:45;2.10;52.30
326;DHT22;150;52.352;14.058;2022-11-22T09:17:11;2.00;52.70
326;DHT22;150;52.352;14.058;2022-11-22T09:19:38;2.00;53.10
326;DHT22;150;52.352;14.058;2022-11-22T09:22:04;2.10;53.50
326;DHT22;150;52.352;14.058;2022-11-22T09:24:31;2.10;52.90
326;DHT22;150;52.352;14.058;2022-11-22T09:26:57;2.10;53.20
326;DHT22;150;52.352;14.058;2022-11-22T09:29:24;2.00;53.30
326;DHT22;150;52.352;14.058;2022-11-22T09:31:52;2.20;53.50
326;DHT22;150;52.352;14.058;2022-11-22T09:34:20;2.20;53.00
326;DHT22;150;52.352;14.058;2022-11-22T09:36:47;2.30;52.90
326;DHT22;150;52.352;14.058;2022-11-22T09:39:13;2.30;52.90
326;DHT22;150;52.352;14.058;2022-11-22T09:41:58;2.30;52.70
326;DHT22;150;52.352;14.058;2022-11-22T09:44:36;2.50;52.30
326;DHT22;150;52.352;14.058;2022-11-22T09:47:12;2.40;52.10
326;DHT22;150;52.352;14.058;2022-11-22T09:49:52;2.30;52.20
326;DHT22;150;52.352;14.058;2022-11-22T09:52:26;2.40;52.50
326;DHT22;150;52.352;14.058;2022-11-22T09:54:58;2.50;52.20
326;DHT22;150;52.352;14.058;2022-11-22T09:57:27;2.40;51.90
326;DHT22;150;52.352;14.058;2022-11-22T10:00:04;2.30;52.90
326;DHT22;150;52.352;14.058;2022-11-22T10:02:36;2.40;53.20
326;DHT22;150;52.352;14.058;2022-11-22T10:05:06;2.30;52.90
326;DHT22;150;52.352;14.058;2022-11-22T10:07:43;2.40;53.00
326;DHT22;150;52.352;14.058;2022-11-22T10:10:13;2.30;52.90
326;DHT22;150;52.352;14.058;2022-11-22T10:12:46;2.40;53.00
326;DHT22;150;52.352;14.058;2022-11-22T10:15:20;2.50;52.40
326;DHT22;150;52.352;14.058;2022-11-22T10:17:53;2.50;52.30
326;DHT22;150;52.352;14.058;2022-11-22T10:20:21;2.50;52.90
326;DHT22;150;52.352;14.058;2022-11-22T10:22:49;2.50;52.20
326;DHT22;150;52.352;14.058;2022-11-22T10:25:18;2.60;52.30
326;DHT22;150;52.352;14.058;2022-11-22T10:27:47;2.50;51.60
326;DHT22;150;52.352;14.058;2022-11-22T10:30:18;2.40;51.90
326;DHT22;150;52.352;14.058;2022-11-22T10:32:55;2.40;52.70
326;DHT22;150;52.352;14.058;2022-11-22T10:35:36;2.50;53.10
326;DHT22;150;52.352;14.058;2022-11-22T10:41:24;2.60;52.10
326;DHT22;150;52.352;14.058;2022-11-22T10:44:01;2.70;52.30
326;DHT22;150;52.352;14.058;2022-11-22T10:46:38;2.80;51.40
326;DHT22;150;52.352;14.058;2022-11-22T10:49:15;3.00;51.30
326;DHT22;150;52.352;14.058;2022-11-22T10:51:49;3.10;49.80
326;DHT22;150;52.352;14.058;2022-11-22T10:54:22;3.00;50.00
326;DHT22;150;52.352;14.058;2022-11-22T10:56:54;3.10;50.30
326;DHT22;150;52.352;14.058;2022-11-22T10:59:36;3.10;49.70
326;DHT22;150;52.352;14.058;2022-11-22T11:02:22;3.10;50.10
326;DHT22;150;52.352;14.058;2022-11-22T11:04:57;3.10;49.60
326;DHT22;150;52.352;14.058;2022-11-22T11:07:25;3.20;49.60
326;DHT22;150;52.352;14.058;2022-11-22T11:09:54;3.30;49.90
326;DHT22;150;52.352;14.058;2022-11-22T11:12:25;3.20;48.60
326;DHT22;150;52.352;14.058;2022-11-22T11:14:56;3.20;49.30
326;DHT22;150;52.352;14.058;2022-11-22T11:17:27;3.20;49.60
326;DHT22;150;52.352;14.058;2022-11-22T11:19:59;3.10;49.50
326;DHT22;150;52.352;14.058;2022-11-22T11:22:31;3.00;50.30
326;DHT22;150;52.352;14.058;2022-11-22T11:25:26;3.10;50.60
326;DHT22;150;52.352;14.058;2022-11-22T11:27:56;3.30;50.80
326;DHT22;150;52.352;14.058;2022-11-22T11:30:24;3.50;49.70
326;DHT22;150;52.352;14.058;2022-11-22T11:32:52;3.60;49.00
326;DHT22;150;52.352;14.058;2022-11-22T11:35:22;3.60;48.60
326;DHT22;150;52.352;14.058;2022-11-22T11:37:50;3.60;48.40
326;DHT22;150;52.352;14.058;2022-11-22T11:40:25;3.60;49.00
326;DHT22;150;52.352;14.058;2022-11-22T11:43:13;3.70;48.70
326;DHT22;150;52.352;14.058;2022-11-22T11:45:40;3.60;48.30
326;DHT22;150;52.352;14.058;2022-11-22T11:48:27;3.70;49.00
326;DHT22;150;52.352;14.058;2022-11-22T11:51:14;3.70;48.50
326;DHT22;150;52.352;14.058;2022-11-22T11:53:49;3.70;48.10
326;DHT22;150;52.352;14.058;2022-11-22T11:56:20;3.60;48.60
326;DHT22;150;52.352;14.058;2022-11-22T11:58:52;3.60;49.00
326;DHT22;150;52.352;14.058;2022-11-22T12:01:20;3.60;49.00
326;DHT22;150;52.352;14.058;2022-11-22T12:03:53;3.70;49.00
326;DHT22;150;52.352;14.058;2022-11-22T12:06:27;3.70;49.00
326;DHT22;150;52.352;14.058;2022-11-22T12:08:54;3.50;48.90
326;DHT22;150;52.352;14.058;2022-11-22T12:11:25;3.60;49.00
326;DHT22;150;52.352;14.058;2022-11-22T12:13:58;3.70;49.00
326;DHT22;150;52.352;14.058;2022-11-22T12:16:28;3.60;49.00
326;DHT22;150;52.352;14.058;2022-11-22T12:18:59;3.70;49.00
326;DHT22;150;52.352;14.058;2022-11-22T12:21:38;3.60;49.00
326;DHT22;150;52.352;14.058;2022-11-22T12:24:11;3.60;49.10
326;DHT22;150;52.352;14.058;2022-11-22T12:26:40;3.50;49.60
326;DHT22;150;52.352;14.058;2022-11-22T12:29:09;3.60;49.80
326;DHT22;150;52.352;14.058;2022-11-22T12:31:38;3.60;49.30
326;DHT22;150;52.352;14.058;2022-11-22T12:34:10;3.70;49.30
326;DHT22;150;52.352;14.058;2022-11-22T12:36:44;3.70;49.00
326;DHT22;150;52.352;14.058;2022-11-22T12:39:17;3.60;49.00
326;DHT22;150;52.352;14.058;2022-11-22T12:41:45;3.60;49.50
326;DHT22;150;52.352;14.058;2022-11-22T12:44:15;3.60;50.10
326;DHT22;150;52.352;14.058;2022-11-22T12:46:45;3.60;49.90
326;DHT22;150;52.352;14.058;2022-11-22T12:49:20;3.70;49.50
326;DHT22;150;52.352;14.058;2022-11-22T12:51:54;3.70;49.00
326;DHT22;150;52.352;14.058;2022-11-22T12:54:27;3.50;50.10
326;DHT22;150;52.352;14.058;2022-11-22T12:56:58;3.60;50.20
326;DHT22;150;52.352;14.058;2022-11-22T12:59:31;3.60;50.30
326;DHT22;150;52.352;14.058;2022-11-22T13:02:08;3.70;49.50
326;DHT22;150;52.352;14.058;2022-11-22T13:04:45;3.60;49.70
326;DHT22;150;52.352;14.058;2022-11-22T13:07:18;3.70;50.00
326;DHT22;150;52.352;14.058;2022-11-22T13:09:51;3.80;49.90
326;DHT22;150;52.352;14.058;2022-11-22T13:12:23;3.70;50.00
326;DHT22;150;52.352;14.058;2022-11-22T13:14:52;3.70;49.90
326;DHT22;150;52.352;14.058;2022-11-22T13:17:21;3.60;50.40
326;DHT22;150;52.352;14.058;2022-11-22T13:19:51;3.60;50.40
326;DHT22;150;52.352;14.058;2022-11-22T13:22:27;3.50;50.20
326;DHT22;150;52.352;14.058;2022-11-22T13:27:43;3.50;51.40
326;DHT22;150;52.352;14.058;2022-11-22T13:30:17;3.40;51.00
326;DHT22;150;52.352;14.058;2022-11-22T13:32:46;3.50;51.20
326;DHT22;150;52.352;14.058;2022-11-22T13:35:24;3.60;50.90
326;DHT22;150;52.352;14.058;2022-11-22T13:37:55;3.60;50.80
326;DHT22;150;52.352;14.058;2022-11-22T13:40:25;3.60;50.80
326;DHT22;150;52.352;14.058;2022-11-22T13:43:30;3.50;50.80
326;DHT22;150;52.352;14.058;2022-11-22T13:45:58;3.60;50.80
326;DHT22;150;52.352;14.058;2022-11-22T13:51:50;3.60;50.40
326;DHT22;150;52.352;14.058;2022-11-22T13:54:41;3.60;50.40
326;DHT22;150;52.352;14.058;2022-11-22T13:57:28;3.50;50.60
326;DHT22;150;52.352;14.058;2022-11-22T14:03:35;3.60;51.30
326;DHT22;150;52.352;14.058;2022-11-22T14:06:22;3.60;50.70
326;DHT22;150;52.352;14.058;2022-11-22T14:09:14;3.60;50.60
326;DHT22;150;52.352;14.058;2022-11-22T14:11:49;3.50;50.70
326;DHT22;150;52.352;14.058;2022-11-22T14:14:24;3.60;50.80
326;DHT22;150;52.352;14.058;2022-11-22T14:17:02;3.50;50.90
326;DHT22;150;52.352;14.058;2022-11-22T14:19:40;3.50;51.10
326;DHT22;150;52.352;14.058;2022-11-22T14:22:16;3.50;51.30
326;DHT22;150;52.352;14.058;2022-11-22T14:24:55;3.50;51.90
326;DHT22;150;52.352;14.058;2022-11-22T14:27:37;3.60;51.20
326;DHT22;150;52.352;14.058;2022-11-22T14:30:14;3.60;51.30
326;DHT22;150;52.352;14.058;2022-11-22T14:32:52;3.60;50.60
326;DHT22;150;52.352;14.058;2022-11-22T14:35:29;3.70;50.30
326;DHT22;150;52.352;14.058;2022-11-22T14:40:45;3.50;51.20
326;DHT22;150;52.352;14.058;2022-11-22T14:43:25;3.60;50.70
326;DHT22;150;52.352;14.058;2022-11-22T14:45:56;3.50;50.70
326;DHT22;150;52.352;14.058;2022-11-22T14:48:29;3.60;51.10
326;DHT22;150;52.352;14.058;2022-11-22T14:51:03;3.60;50.80
326;DHT22;150;52.352;14.058;2022-11-22T14:53:35;3.60;51.00
326;DHT22;150;52.352;14.058;2022-11-22T14:56:10;3.70;51.30
326;DHT22;150;52.352;14.058;2022-11-22T14:58:45;3.70;50.80
326;DHT22;150;52.352;14.058;2022-11-22T15:01:45;3.70;50.30
326;DHT22;150;52.352;14.058;2022-11-22T15:04:43;3.70;49.90
326;DHT22;150;52.352;14.058;2022-11-22T15:13:13;3.50;50.50
326;DHT22;150;52.352;14.058;2022-11-22T15:15:44;3.60;50.90
326;DHT22;150;52.352;14.058;2022-11-22T15:18:16;3.60;50.70
326;DHT22;150;52.352;14.058;2022-11-22T15:20:44;3.60;50.80
326;DHT22;150;52.352;14.058;2022-11-22T15:23:16;3.60;50.90
326;DHT22;150;52.352;14.058;2022-11-22T15:25:45;3.50;50.70
326;DHT22;150;52.352;14.058;2022-11-22T15:28:17;3.60;51.00
326;DHT22;150;52.352;14.058;2022-11-22T15:30:46;3.60;50.80
326;DHT22;150;52.352;14.058;2022-11-22T15:33:25;3.50;50.90
326;DHT22;150;52.352;14.058;2022-11-22T15:36:02;3.50;51.20
326;DHT22;150;52.352;14.058;2022-11-22T15:38:32;3.50;51.50
326;DHT22;150;52.352;14.058;2022-11-22T15:41:02;3.40;51.80
326;DHT22;150;52.352;14.058;2022-11-22T15:43:30;3.40;52.20
326;DHT22;150;52.352;14.058;2022-11-22T15:45:58;3.40;52.40
326;DHT22;150;52.352;14.058;2022-11-22T15:48:28;3.50;52.10
326;DHT22;150;52.352;14.058;2022-11-22T15:51:18;3.40;52.10
326;DHT22;150;52.352;14.058;2022-11-22T15:54:05;3.50;52.10
326;DHT22;150;52.352;14.058;2022-11-22T15:56:36;3.50;52.00
326;DHT22;150;52.352;14.058;2022-11-22T15:59:07;3.40;51.90
326;DHT22;150;52.352;14.058;2022-11-22T16:01:38;3.40;52.20
326;DHT22;150;52.352;14.058;2022-11-22T16:04:12;3.40;52.30
326;DHT22;150;52.352;14.058;2022-11-22T16:06:44;3.30;52.50
326;DHT22;150;52.352;14.058;2022-11-22T16:09:20;3.30;53.00
326;DHT22;150;52.352;14.058;2022-11-22T16:11:52;3.30;52.80
326;DHT22;150;52.352;14.058;2022-11-22T16:14:42;3.40;53.10
326;DHT22;150;52.352;14.058;2022-11-22T16:17:34;3.40;52.70
326;DHT22;150;52.352;14.058;2022-11-22T16:20:24;3.40;52.40
326;DHT22;150;52.352;14.058;2022-11-22T16:23:14;3.40;52.60
326;DHT22;150;52.352;14.058;2022-11-22T16:25:42;3.40;52.80
326;DHT22;150;52.352;14.058;2022-11-22T16:28:30;3.40;52.50
326;DHT22;150;52.352;14.058;2022-11-22T16:30:59;3.40;52.90
326;DHT22;150;52.352;14.058;2022-11-22T16:33:28;3.40;52.50
326;DHT22;150;52.352;14.058;2022-11-22T16:35:56;3.50;52.60
326;DHT22;150;52.352;14.058;2022-11-22T16:38:24;3.40;52.50
326;DHT22;150;52.352;14.058;2022-11-22T16:40:52;3.40;53.00
326;DHT22;150;52.352;14.058;2022-11-22T16:43:21;3.30;52.90
326;DHT22;150;52.352;14.058;2022-11-22T16:45:48;3.40;52.80
326;DHT22;150;52.352;14.058;2022-11-22T16:48:17;3.40;52.80
326;DHT22;150;52.352;14.058;2022-11-22T16:50:48;3.30;53.20
326;DHT22;150;52.352;14.058;2022-11-22T16:53:15;3.40;53.40
326;DHT22;150;52.352;14.058;2022-11-22T16:55:42;3.30;53.70
326;DHT22;150;52.352;14.058;2022-11-22T16:58:15;3.30;53.70
326;DHT22;150;52.352;14.058;2022-11-22T17:00:42;3.30;53.90
326;DHT22;150;52.352;14.058;2022-11-22T17:03:17;3.40;53.80
326;DHT22;150;52.352;14.058;2022-11-22T17:05:46;3.40;53.80
326;DHT22;150;52.352;14.058;2022-11-22T17:08:14;3.50;53.50
326;DHT22;150;52.352;14.058;2022-11-22T17:10:43;3.50;53.00
326;DHT22;150;52.352;14.058;2022-11-22T17:13:20;3.60;52.80